Time;durP1;ratioP1;P1;durP2;ratioP2;P2;SDS_P1;SDS_P2;PMS_P1;PMS_P2;Temp;Humidity;BMP_temperature;BMP_pressure;BME280_temperature;BME280_humidity;BME280_pressure;Samples;Min_cycle;Max_cycle;Signal;HPM_P1;HPM_P2
2024/03/10 00:02:10;;;;;;;4.83;4.43;;;15.00;48.20;;;;;;5028663;28;20181;-61
2024/03/10 00:04:36;;;;;;;4.53;4.13;;;14.80;48.30;;;;;;5028088;28;20219;-62
2024/03/10 00:07:02;;;;;;;5.27;4.77;;;14.70;49.00;;;;;;5030751;28;20204;-67
2024/03/10 00:09:28;;;;;;;5.60;4.60;;;14.60;48.20;;;;;;5030414;28;20664;-64
2024/03/10 00:11:54;;;;;;;6.50;5.27;;;14.80;48.50;;;;;;5028629;28;20468;-63
2024/03/10 00:14:20;;;;;;;4.80;4.03;;;14.90;47.60;;;;;;5023428;28;20188;-63
2024/03/10 00:16:45;;;;;;;4.50;4.10;;;15.00;48.30;;;;;;5023531;28;20507;-63
2024/03/10 00:19:11;;;;;;;5.03;4.27;;;15.20;47.90;;;;;;5024834;28;21037;-65
2024/03/10 00:21:37;;;;;;;5.07;4.27;;;15.10;47.60;;;;;;5024688;28;20268;-63
2024/03/10 00:24:04;;;;;;;4.80;4.30;;;15.20;47.80;;;;;;5027497;28;20196;-64
2024/03/10 00:26:30;;;;;;;4.80;4.30;;;15.40;47.80;;;;;;5023013;28;20464;-64
2024/03/10 00:28:55;;;;;;;5.77;4.80;;;15.10;47.20;;;;;;5022946;28;21460;-58
2024/03/10 00:31:21;;;;;;;4.47;4.07;;;14.90;48.20;;;;;;5023805;28;20188;-62
2024/03/10 00:33:47;;;;;;;5.43;4.60;;;14.80;48.50;;;;;;5025391;28;20189;-61
2024/03/10 00:36:12;;;;;;;5.83;5.20;;;14.90;48.60;;;;;;5030261;28;20217;-62
2024/03/10 00:38:38;;;;;;;4.03;3.70;;;15.10;48.00;;;;;;5027660;28;20186;-62
2024/03/10 00:41:04;;;;;;;5.00;4.43;;;15.00;48.00;;;;;;5023223;28;20276;-63
2024/03/10 00:43:31;;;;;;;7.03;5.57;;;14.90;48.40;;;;;;5025460;28;20709;-62
2024/03/10 00:45:56;;;;;;;4.60;4.07;;;14.90;47.80;;;;;;5030231;28;20424;-62
2024/03/10 00:48:22;;;;;;;4.80;4.40;;;14.70;49.00;;;;;;5024813;28;20435;-65
2024/03/10 00:50:47;;;;;;;5.80;4.40;;;14.70;48.90;;;;;;5028873;28;20213;-64
2024/03/10 00:53:14;;;;;;;8.00;4.60;;;14.80;48.70;;;;;;5028431;28;20232;-60
2024/03/10 00:55:39;;;;;;;5.30;4.70;;;14.90;48.50;;;;;;5030532;28;20220;-61
2024/03/10 00:58:05;;;;;;;5.77;4.90;;;15.00;47.70;;;;;;5030294;28;20448;-61
2024/03/10 01:00:32;;;;;;;5.30;4.80;;;15.00;47.60;;;;;;5028576;28;20177;-61
2024/03/10 01:02:58;;;;;;;4.60;3.83;;;14.70;47.90;;;;;;5022215;28;20193;-67
2024/03/10 01:05:24;;;;;;;5.17;4.53;;;14.50;48.50;;;;;;5020952;28;20447;-65
2024/03/10 01:07:50;;;;;;;5.20;4.30;;;14.30;48.70;;;;;;5019802;28;21004;-61
2024/03/10 01:10:15;;;;;;;4.43;4.03;;;13.90;49.40;;;;;;5022571;28;20185;-61
2024/03/10 01:12:41;;;;;;;6.00;5.07;;;13.60;50.30;;;;;;5018415;28;20216;-66
2024/03/10 01:15:07;;;;;;;4.50;4.10;;;13.50;50.60;;;;;;5020897;28;20228;-61
2024/03/10 01:17:33;;;;;;;4.53;4.13;;;13.50;50.30;;;;;;5020957;28;22108;-63
2024/03/10 01:20:00;;;;;;;4.80;4.30;;;13.50;50.80;;;;;;5022329;28;20435;-65
2024/03/10 01:22:26;;;;;;;4.77;4.17;;;13.50;50.30;;;;;;5024042;28;20522;-61
2024/03/10 01:24:51;;;;;;;5.23;4.57;;;13.60;50.70;;;;;;5023600;28;20562;-61
2024/03/10 01:27:17;;;;;;;4.53;4.13;;;13.70;50.20;;;;;;5021339;28;20717;-60
2024/03/10 01:29:44;;;;;;;5.13;4.63;;;13.70;50.00;;;;;;5018587;28;20193;-65
2024/03/10 01:32:09;;;;;;;4.93;4.40;;;13.60;49.80;;;;;;5020078;28;20204;-62
2024/03/10 01:34:36;;;;;;;5.07;4.50;;;13.60;50.60;;;;;;5022731;28;20435;-63
2024/03/10 01:37:02;;;;;;;4.97;4.23;;;13.70;50.20;;;;;;5019634;28;22120;-61
2024/03/10 01:39:27;;;;;;;5.60;4.23;;;13.80;49.70;;;;;;5021431;28;20447;-60
2024/03/10 01:41:54;;;;;;;4.03;3.63;;;13.80;50.00;;;;;;5023171;28;20193;-64
2024/03/10 01:44:20;;;;;;;5.10;3.90;;;14.00;50.00;;;;;;5020882;28;20185;-61
2024/03/10 01:46:46;;;;;;;4.30;3.90;;;14.10;49.10;;;;;;5027182;28;20471;-58
2024/03/10 01:49:12;;;;;;;5.07;4.20;;;14.10;49.40;;;;;;5029567;28;20185;-59
2024/03/10 01:51:41;;;;;;;3.97;3.57;;;14.20;49.00;;;;;;5021585;28;20813;-60
2024/03/10 01:54:10;;;;;;;4.90;3.50;;;14.20;48.80;;;;;;5021468;28;20193;-63
2024/03/10 01:56:37;;;;;;;5.87;4.87;;;14.20;48.20;;;;;;5021457;28;20498;-59
2024/03/10 01:59:04;;;;;;;4.23;3.73;;;14.20;48.30;;;;;;5028949;28;20477;-63
2024/03/10 02:01:32;;;;;;;4.07;3.67;;;14.20;48.40;;;;;;5030184;28;20435;-59
2024/03/10 02:03:58;;;;;;;4.17;3.77;;;14.20;48.20;;;;;;5020664;28;20444;-61
2024/03/10 02:06:25;;;;;;;3.50;3.10;;;14.20;47.50;;;;;;5018690;28;20466;-59
2024/03/10 02:08:51;;;;;;;4.23;3.20;;;14.10;48.30;;;;;;5024401;28;20533;-61
2024/03/10 02:11:20;;;;;;;4.77;3.80;;;14.40;47.80;;;;;;5030033;28;20451;-60
2024/03/10 02:13:45;;;;;;;4.20;3.20;;;14.30;47.60;;;;;;5029829;28;20971;-65
2024/03/10 02:16:11;;;;;;;3.73;3.40;;;14.00;47.30;;;;;;5029345;28;20612;-65
2024/03/10 02:18:38;;;;;;;4.20;3.50;;;13.80;48.20;;;;;;5027436;28;20210;-65
2024/03/10 02:21:04;;;;;;;5.83;3.73;;;13.70;48.50;;;;;;5022564;28;20444;-65
2024/03/10 02:23:40;;;;;;;3.80;3.50;;;14.00;48.20;;;;;;5023798;28;20443;-65
2024/03/10 02:26:09;;;;;;;3.87;3.47;;;14.00;47.50;;;;;;5029705;28;20452;-62
2024/03/10 02:28:46;;;;;;;4.70;3.17;;;14.00;48.20;;;;;;5022152;28;20504;-58
2024/03/10 02:47:36;;;;;;;3.40;3.10;;;14.10;46.90;;;;;;5024543;28;20482;-64
2024/03/10 02:50:02;;;;;;;3.10;2.40;;;14.30;47.50;;;;;;5021184;28;20427;-69
2024/03/10 02:52:28;;;;;;;3.80;3.13;;;14.60;46.90;;;;;;5020912;28;21055;-60
2024/03/10 02:54:55;;;;;;;2.60;2.40;;;14.70;45.60;;;;;;5019269;28;20825;-64
2024/03/10 02:57:22;;;;;;;4.47;3.17;;;14.80;45.90;;;;;;5018466;28;20225;-63
2024/03/10 02:59:48;;;;;;;4.23;3.80;;;14.70;45.30;;;;;;5019832;28;20895;-65
2024/03/10 03:02:18;;;;;;;3.60;3.30;;;14.50;46.20;;;;;;5020470;28;20434;-63
2024/03/10 03:04:45;;;;;;;3.30;3.00;;;14.60;46.10;;;;;;5024461;28;20185;-65
2024/03/10 03:07:10;;;;;;;3.60;3.13;;;14.20;45.90;;;;;;5024238;28;20502;-59
2024/03/10 03:09:37;;;;;;;3.20;2.90;;;14.20;46.40;;;;;;5031196;28;20815;-62
2024/03/10 03:12:03;;;;;;;3.87;3.40;;;14.10;46.90;;;;;;5027612;28;20240;-65
2024/03/10 03:14:28;;;;;;;4.33;2.93;;;13.90;47.10;;;;;;5024950;28;20444;-64
2024/03/10 03:16:54;;;;;;;3.30;3.00;;;14.10;46.70;;;;;;5024288;28;20546;-65
2024/03/10 03:19:20;;;;;;;3.33;3.03;;;14.30;46.80;;;;;;5023143;28;20628;-66
2024/03/10 03:21:45;;;;;;;3.87;3.40;;;14.30;46.50;;;;;;5027932;28;20193;-60
2024/03/10 03:24:13;;;;;;;3.10;2.80;;;14.20;46.40;;;;;;5021488;28;20182;-63
2024/03/10 03:26:39;;;;;;;4.33;2.80;;;14.30;46.20;;;;;;5027015;28;20677;-59
2024/03/10 03:29:05;;;;;;;3.73;3.20;;;14.40;46.70;;;;;;5023383;28;20823;-60
2024/03/10 03:31:31;;;;;;;4.03;3.00;;;14.50;45.90;;;;;;5028081;28;20218;-64
2024/03/10 03:33:57;;;;;;;3.17;2.87;;;14.40;45.70;;;;;;5024239;28;20451;-61
2024/03/10 03:36:22;;;;;;;3.73;3.07;;;14.20;47.10;;;;;;5023618;28;20505;-62
2024/03/10 03:38:48;;;;;;;8.13;3.30;;;14.50;46.50;;;;;;5023892;28;20225;-64
2024/03/10 03:41:13;;;;;;;3.40;3.10;;;14.40;46.30;;;;;;5026587;28;20267;-59
2024/03/10 03:43:39;;;;;;;4.23;3.30;;;14.50;46.00;;;;;;5024552;28;20190;-61
2024/03/10 03:46:05;;;;;;;3.37;3.07;;;14.40;46.00;;;;;;5031028;28;20189;-62
2024/03/10 03:48:31;;;;;;;3.60;2.50;;;14.40;46.70;;;;;;5024579;28;20186;-66
2024/03/10 03:50:57;;;;;;;3.10;2.80;;;14.20;46.20;;;;;;5024175;28;20188;-63
2024/03/10 03:53:22;;;;;;;4.33;3.30;;;14.20;46.60;;;;;;5021531;28;20781;-63
2024/03/10 03:55:48;;;;;;;3.03;2.73;;;14.20;47.00;;;;;;5023809;28;20335;-58
2024/03/10 03:58:13;;;;;;;3.40;3.10;;;14.10;46.50;;;;;;5024264;28;20775;-58
2024/03/10 04:00:39;;;;;;;3.83;3.13;;;14.10;46.40;;;;;;5024045;28;20182;-61
2024/03/10 04:03:05;;;;;;;3.80;2.50;;;14.10;46.40;;;;;;5024477;28;20288;-64
2024/03/10 04:05:31;;;;;;;4.20;2.87;;;14.30;46.60;;;;;;5023574;28;20181;-62
2024/03/10 04:07:57;;;;;;;3.17;2.53;;;14.30;46.10;;;;;;5022165;28;20470;-65
2024/03/10 04:10:22;;;;;;;2.93;2.63;;;14.10;45.60;;;;;;5020346;28;20196;-61
2024/03/10 04:12:48;;;;;;;3.20;2.90;;;14.20;46.20;;;;;;5021979;28;20189;-60
2024/03/10 04:15:14;;;;;;;3.30;2.97;;;14.20;46.70;;;;;;5022387;28;20177;-58
2024/03/10 04:17:40;;;;;;;2.83;2.63;;;14.30;45.60;;;;;;5021922;28;20228;-63
2024/03/10 04:20:12;;;;;;;3.43;2.40;;;14.20;46.10;;;;;;5024482;28;20625;-63
2024/03/10 04:22:39;;;;;;;4.90;3.00;;;14.00;45.70;;;;;;5021394;28;20439;-62
2024/03/10 04:25:07;;;;;;;3.40;2.87;;;13.90;46.70;;;;;;5026088;28;20494;-64
2024/03/10 04:27:34;;;;;;;2.97;2.67;;;13.80;46.00;;;;;;5020571;28;22232;-66
2024/03/10 04:29:59;;;;;;;4.00;3.60;;;13.40;45.80;;;;;;5021395;28;20432;-64
2024/03/10 04:32:25;;;;;;;3.60;3.27;;;13.20;46.40;;;;;;5022614;28;20793;-64
2024/03/10 04:34:50;;;;;;;3.47;3.13;;;13.20;46.40;;;;;;5022885;28;20188;-60
2024/03/10 04:37:17;;;;;;;4.07;3.33;;;13.10;46.50;;;;;;5021569;28;20217;-61
2024/03/10 04:39:42;;;;;;;3.40;2.87;;;13.00;47.10;;;;;;5021964;28;20189;-64
2024/03/10 04:42:10;;;;;;;3.53;2.93;;;12.90;47.30;;;;;;5023361;28;20451;-62
2024/03/10 04:44:36;;;;;;;2.87;2.67;;;13.00;47.00;;;;;;5018776;28;20674;-62
2024/03/10 04:47:02;;;;;;;2.60;2.40;;;12.60;47.50;;;;;;5020671;28;21040;-65
2024/03/10 04:49:27;;;;;;;4.43;2.67;;;12.60;47.80;;;;;;5023035;28;20448;-66
2024/03/10 04:51:53;;;;;;;2.70;2.50;;;12.50;47.90;;;;;;5023503;28;20520;-62
2024/03/10 04:54:18;;;;;;;3.97;3.17;;;12.20;48.40;;;;;;5022327;28;20185;-60
2024/03/10 04:56:46;;;;;;;2.80;2.60;;;12.20;48.30;;;;;;5026561;28;20224;-61
2024/03/10 04:59:11;;;;;;;6.10;2.50;;;12.30;48.10;;;;;;5029368;28;20177;-63
2024/03/10 05:01:37;;;;;;;3.13;2.80;;;12.10;48.20;;;;;;5022807;28;20858;-61
2024/03/10 05:04:02;;;;;;;2.60;2.40;;;12.00;48.50;;;;;;5022680;28;20286;-65
2024/03/10 05:06:28;;;;;;;2.63;2.43;;;11.90;48.60;;;;;;5027567;28;20315;-61
2024/03/10 05:08:53;;;;;;;2.40;2.20;;;12.10;48.40;;;;;;5029504;28;20712;-63
2024/03/10 05:11:19;;;;;;;2.90;2.50;;;12.00;48.50;;;;;;5021202;28;20186;-57
2024/03/10 05:13:45;;;;;;;2.37;2.17;;;12.10;48.70;;;;;;5028860;28;20217;-58
2024/03/10 05:16:12;;;;;;;3.00;2.40;;;12.20;48.30;;;;;;5023061;28;20303;-61
2024/03/10 05:18:38;;;;;;;4.30;2.50;;;12.20;48.30;;;;;;5026466;28;20243;-63
2024/03/10 05:21:04;;;;;;;2.67;2.47;;;12.10;48.40;;;;;;5027101;28;20440;-61
2024/03/10 05:23:29;;;;;;;3.90;2.43;;;12.10;48.40;;;;;;5022908;28;20702;-58
2024/03/10 05:25:55;;;;;;;5.50;2.70;;;12.30;48.30;;;;;;5023841;28;20186;-62
2024/03/10 05:28:20;;;;;;;3.00;2.70;;;12.00;48.50;;;;;;5029802;28;20636;-62
2024/03/10 05:30:46;;;;;;;2.50;2.30;;;12.20;48.30;;;;;;5030984;28;20235;-62
2024/03/10 05:33:12;;;;;;;3.07;2.37;;;12.20;48.20;;;;;;5029967;28;20177;-60
2024/03/10 05:35:38;;;;;;;3.00;2.37;;;12.20;48.10;;;;;;5026743;28;20598;-58
2024/03/10 05:38:04;;;;;;;3.50;2.67;;;12.30;48.10;;;;;;5023171;28;20526;-60
2024/03/10 05:40:29;;;;;;;3.60;2.73;;;12.10;48.90;;;;;;5022853;28;20185;-58
2024/03/10 05:42:55;;;;;;;2.23;2.03;;;12.10;48.40;;;;;;5020016;28;20439;-64
2024/03/10 05:45:21;;;;;;;3.23;2.77;;;12.30;48.40;;;;;;5022872;28;20177;-62
2024/03/10 05:47:48;;;;;;;2.63;2.43;;;12.30;48.30;;;;;;5022245;28;20224;-64
2024/03/10 05:50:14;;;;;;;2.97;2.40;;;12.30;48.10;;;;;;5023051;28;20259;-60
2024/03/10 05:52:40;;;;;;;2.77;2.40;;;12.10;48.30;;;;;;5022826;28;21032;-59
2024/03/10 05:55:07;;;;;;;2.80;2.60;;;12.10;48.50;;;;;;5022569;28;20452;-59
2024/03/10 05:57:33;;;;;;;4.73;2.77;;;12.10;48.70;;;;;;5022096;28;20217;-67
2024/03/10 05:59:59;;;;;;;3.80;3.33;;;11.50;49.30;;;;;;5023468;28;20446;-62
2024/03/10 06:02:25;;;;;;;4.13;2.73;;;11.50;49.60;;;;;;5023368;28;20935;-62
2024/03/10 06:04:50;;;;;;;4.33;3.17;;;11.40;50.00;;;;;;5021389;28;20432;-63
2024/03/10 06:07:16;;;;;;;2.30;2.10;;;11.40;49.90;;;;;;5021520;28;20278;-61
2024/03/10 06:09:41;;;;;;;2.87;2.23;;;11.50;49.70;;;;;;5015785;28;20180;-61
2024/03/10 06:12:07;;;;;;;2.27;2.00;;;11.70;49.50;;;;;;5022960;28;20247;-61
2024/03/10 06:14:33;;;;;;;3.50;2.30;;;11.90;49.30;;;;;;5020335;28;20193;-63
2024/03/10 06:16:59;;;;;;;2.40;2.20;;;11.90;49.10;;;;;;5021278;28;20213;-63
2024/03/10 06:27:41;;;;;;;5.50;2.37;;;12.70;49.80;;;;;;5021022;28;20509;-62
2024/03/10 06:30:10;;;;;;;3.17;2.10;;;13.10;49.10;;;;;;5021524;28;20458;-60
2024/03/10 06:32:37;;;;;;;2.70;2.23;;;13.30;47.80;;;;;;5019183;28;20427;-61
2024/03/10 06:35:03;;;;;;;2.60;2.40;;;13.40;47.70;;;;;;5018548;28;20442;-64
2024/03/10 06:37:29;;;;;;;4.40;2.60;;;13.70;47.90;;;;;;5019061;28;20530;-62
2024/03/10 06:39:54;;;;;;;2.73;2.50;;;13.90;46.70;;;;;;5023726;28;20939;-60
2024/03/10 06:42:22;;;;;;;2.60;2.40;;;14.10;46.50;;;;;;5024882;28;20214;-62
2024/03/10 06:44:49;;;;;;;2.80;2.60;;;14.30;45.90;;;;;;5027392;28;20688;-59
2024/03/10 06:47:14;;;;;;;2.50;2.30;;;14.40;45.10;;;;;;5031513;28;20451;-62
2024/03/10 06:49:40;;;;;;;2.67;2.47;;;14.60;44.90;;;;;;5031977;28;20521;-62
2024/03/10 06:52:06;;;;;;;2.17;1.93;;;14.70;44.80;;;;;;5034250;28;20197;-62
2024/03/10 06:54:32;;;;;;;20.23;18.53;;;14.80;44.60;;;;;;5032511;28;20225;-62
2024/03/10 06:56:57;;;;;;;4.93;4.00;;;14.90;44.50;;;;;;5029458;28;20483;-62
2024/03/10 06:59:25;;;;;;;4.37;3.13;;;14.90;44.20;;;;;;5030036;28;20185;-65
2024/03/10 07:01:54;;;;;;;2.70;2.50;;;14.90;44.20;;;;;;5031460;28;20208;-62
2024/03/10 07:04:19;;;;;;;2.67;2.47;;;14.90;44.10;;;;;;5031806;28;20439;-64
2024/03/10 07:06:49;;;;;;;3.00;2.70;;;14.90;43.90;;;;;;5033008;28;20448;-62
2024/03/10 07:09:16;;;;;;;3.50;2.73;;;14.80;43.70;;;;;;5029914;28;20681;-65
2024/03/10 07:11:42;;;;;;;2.53;2.33;;;14.80;43.80;;;;;;5031507;28;20526;-62
2024/03/10 07:14:08;;;;;;;2.03;1.90;;;14.50;43.80;;;;;;5030177;28;20527;-67
2024/03/10 07:16:35;;;;;;;2.30;2.10;;;14.40;44.20;;;;;;5030128;28;20208;-61
2024/03/10 07:19:01;;;;;;;2.33;2.13;;;14.20;44.50;;;;;;5026994;28;20488;-62
2024/03/10 07:21:27;;;;;;;3.37;2.63;;;14.10;44.40;;;;;;5031404;28;20843;-61
2024/03/10 07:23:53;;;;;;;2.57;2.37;;;14.10;45.00;;;;;;5032705;28;20193;-64
2024/03/10 07:26:19;;;;;;;4.10;2.83;;;14.20;44.50;;;;;;5030169;28;20262;-61
2024/03/10 07:28:45;;;;;;;2.40;2.00;;;14.40;44.30;;;;;;5030929;28;20523;-61
2024/03/10 07:31:11;;;;;;;3.53;2.23;;;14.60;43.90;;;;;;5029118;28;20182;-62
2024/03/10 07:33:37;;;;;;;2.40;2.20;;;14.70;44.20;;;;;;5027882;28;20786;-61
2024/03/10 07:36:04;;;;;;;3.80;2.80;;;14.80;44.40;;;;;;5027445;28;20216;-62
2024/03/10 07:38:30;;;;;;;2.47;2.27;;;14.80;44.10;;;;;;5030682;28;20509;-57
2024/03/10 07:40:55;;;;;;;2.53;2.20;;;14.80;44.10;;;;;;5030278;28;20808;-60
2024/03/10 07:43:22;;;;;;;2.83;2.40;;;14.80;43.90;;;;;;5028043;28;20451;-65
2024/03/10 07:45:48;;;;;;;2.43;2.00;;;14.80;43.70;;;;;;5026990;28;20189;-63
2024/03/10 07:48:16;;;;;;;3.93;2.33;;;14.80;43.80;;;;;;5026100;28;20439;-63
2024/03/10 07:50:42;;;;;;;2.83;2.30;;;14.90;43.70;;;;;;5029067;28;20718;-61
2024/03/10 07:53:09;;;;;;;2.70;2.50;;;14.90;43.70;;;;;;5028656;28;20455;-63
2024/03/10 07:55:34;;;;;;;2.50;2.30;;;14.60;43.60;;;;;;5024049;28;20840;-59
2024/03/10 07:58:00;;;;;;;2.90;2.37;;;14.70;43.80;;;;;;5025895;28;20480;-64
2024/03/10 08:00:26;;;;;;;2.10;1.90;;;14.70;44.20;;;;;;5029349;28;20185;-62
2024/03/10 08:02:53;;;;;;;1.97;1.77;;;14.70;43.90;;;;;;5026015;28;20523;-59
2024/03/10 08:05:20;;;;;;;2.87;2.20;;;13.90;44.00;;;;;;5030322;28;20924;-60
2024/03/10 08:07:46;;;;;;;2.50;2.20;;;13.90;44.80;;;;;;5029226;28;20509;-58
2024/03/10 08:10:15;;;;;;;2.40;1.77;;;14.10;44.70;;;;;;5024148;28;20522;-60
2024/03/10 08:12:43;;;;;;;2.40;2.10;;;14.40;44.60;;;;;;5025769;28;20482;-62
2024/03/10 08:15:11;;;;;;;2.80;1.77;;;14.40;43.90;;;;;;5030043;28;20497;-58
2024/03/10 08:17:37;;;;;;;2.60;1.90;;;14.40;44.10;;;;;;5026845;28;21044;-63
2024/03/10 08:20:06;;;;;;;2.53;1.87;;;14.60;44.10;;;;;;5029011;28;20474;-70
2024/03/10 08:22:36;;;;;;;2.23;2.03;;;14.40;43.60;;;;;;5028940;28;20440;-71
2024/03/10 08:25:03;;;;;;;2.00;1.80;;;14.60;43.90;;;;;;5028468;28;20861;-61
2024/03/10 08:27:29;;;;;;;2.10;1.90;;;14.30;43.70;;;;;;5023919;28;20550;-58
2024/03/10 08:29:55;;;;;;;2.80;1.97;;;14.50;44.80;;;;;;5031494;28;20570;-61
2024/03/10 08:32:20;;;;;;;2.50;2.30;;;14.90;44.10;;;;;;5031047;28;20268;-63
2024/03/10 08:34:46;;;;;;;2.07;1.87;;;14.90;43.50;;;;;;5032260;28;20181;-68
2024/03/10 08:37:15;;;;;;;1.70;1.60;;;15.10;43.00;;;;;;5031155;28;20726;-59
2024/03/10 08:39:41;;;;;;;2.00;1.80;;;15.30;42.80;;;;;;5031351;28;20312;-59
2024/03/10 08:42:06;;;;;;;2.10;1.93;;;15.50;42.80;;;;;;5027666;28;20531;-64
2024/03/10 08:44:32;;;;;;;2.60;1.97;;;15.60;42.60;;;;;;5031696;28;20200;-65
2024/03/10 08:46:58;;;;;;;6.23;2.20;;;15.80;42.20;;;;;;5030617;28;20694;-62
2024/03/10 08:49:24;;;;;;;2.60;2.40;;;16.10;42.00;;;;;;5031055;28;20828;-62
2024/03/10 08:51:49;;;;;;;1.90;1.80;;;16.30;41.90;;;;;;5031366;28;21204;-59
2024/03/10 08:54:15;;;;;;;2.33;2.10;;;16.40;41.60;;;;;;5030513;28;20190;-61
2024/03/10 08:56:41;;;;;;;2.40;2.20;;;16.50;41.30;;;;;;5029508;28;20208;-63
2024/03/10 08:59:11;;;;;;;1.63;1.53;;;16.60;41.30;;;;;;5031106;28;20189;-62
2024/03/10 09:01:41;;;;;;;2.20;2.00;;;16.60;41.40;;;;;;5030980;28;20452;-61
2024/03/10 09:04:07;;;;;;;2.03;1.83;;;16.30;42.20;;;;;;5030980;28;20776;-61
2024/03/10 09:06:34;;;;;;;2.30;2.10;;;16.50;41.60;;;;;;5026978;28;20455;-61
2024/03/10 09:09:01;;;;;;;2.23;2.03;;;16.60;41.40;;;;;;5031159;28;20420;-57
2024/03/10 09:11:27;;;;;;;2.00;1.80;;;16.60;40.80;;;;;;5028908;28;20786;-59
2024/03/10 09:13:52;;;;;;;1.93;1.83;;;16.40;41.20;;;;;;5027881;28;20530;-59
2024/03/10 09:16:18;;;;;;;1.87;1.77;;;16.60;41.20;;;;;;5026934;28;20220;-55
2024/03/10 09:18:44;;;;;;;1.80;1.70;;;16.50;41.10;;;;;;5030088;28;20181;-61
2024/03/10 09:21:09;;;;;;;2.20;2.00;;;16.60;40.90;;;;;;5031418;28;20185;-61
2024/03/10 09:23:37;;;;;;;2.73;1.90;;;16.50;41.30;;;;;;5030443;28;20420;-64
2024/03/10 09:26:03;;;;;;;1.80;1.67;;;16.50;41.30;;;;;;5025178;28;20271;-64
2024/03/10 09:28:29;;;;;;;2.00;1.90;;;16.50;41.20;;;;;;5030771;28;21184;-61
2024/03/10 09:30:57;;;;;;;2.30;1.70;;;16.60;41.20;;;;;;5025641;28;20181;-60
2024/03/10 09:33:23;;;;;;;3.90;2.30;;;16.00;41.40;;;;;;5022520;28;20244;-64
2024/03/10 09:35:53;;;;;;;1.97;1.77;;;15.60;41.90;;;;;;5025511;28;20467;-61
2024/03/10 09:38:19;;;;;;;1.70;1.60;;;15.30;42.50;;;;;;5027720;28;20428;-64
2024/03/10 09:40:45;;;;;;;1.90;1.80;;;15.30;42.70;;;;;;5024817;28;20432;-64
2024/03/10 09:43:11;;;;;;;5.20;2.10;;;15.40;42.50;;;;;;5027071;28;20185;-63
2024/03/10 09:45:43;;;;;;;1.97;1.87;;;15.80;42.70;;;;;;5028894;28;20939;-66
2024/03/10 09:48:09;;;;;;;2.20;2.00;;;16.00;42.30;;;;;;5025377;28;21052;-63
2024/03/10 09:50:48;;;;;;;1.80;1.70;;;16.00;41.60;;;;;;5024608;28;21056;-64
2024/03/10 09:53:15;;;;;;;1.50;1.40;;;16.00;42.40;;;;;;5027322;28;20800;-63
2024/03/10 09:55:41;;;;;;;2.07;1.97;;;16.20;42.40;;;;;;5025541;28;20462;-62
2024/03/10 09:58:13;;;;;;;2.10;1.90;;;16.30;42.20;;;;;;5025502;28;20549;-61
2024/03/10 10:00:40;;;;;;;2.30;2.10;;;16.40;41.80;;;;;;5027981;28;20450;-64
2024/03/10 10:03:09;;;;;;;1.97;1.83;;;16.60;41.50;;;;;;5026928;28;20456;-63
2024/03/10 10:05:42;;;;;;;2.07;1.73;;;16.70;41.40;;;;;;5025789;28;20507;-62
2024/03/10 10:08:12;;;;;;;2.67;1.80;;;16.90;41.50;;;;;;5029646;28;20455;-61
2024/03/10 10:10:51;;;;;;;2.37;1.73;;;17.00;41.30;;;;;;5028621;28;20455;-63
2024/03/10 10:13:27;;;;;;;1.77;1.57;;;16.80;41.00;;;;;;5032571;28;20455;-63
2024/03/10 10:15:56;;;;;;;1.70;1.60;;;16.80;41.50;;;;;;5030864;28;20436;-61
2024/03/10 10:18:23;;;;;;;2.23;1.90;;;16.90;41.00;;;;;;5031928;28;20477;-63
2024/03/10 10:20:59;;;;;;;1.80;1.70;;;17.10;41.00;;;;;;5032713;28;20451;-62
2024/03/10 10:23:24;;;;;;;1.73;1.63;;;17.40;41.00;;;;;;5030895;28;20482;-61
2024/03/10 10:25:54;;;;;;;1.70;1.60;;;17.60;40.40;;;;;;5032670;28;20854;-62
2024/03/10 10:28:20;;;;;;;4.00;1.70;;;17.90;40.40;;;;;;5028819;28;20180;-62
2024/03/10 10:30:45;;;;;;;1.83;1.70;;;17.80;40.00;;;;;;5031419;28;20438;-69
2024/03/10 10:33:14;;;;;;;1.67;1.47;;;17.90;39.80;;;;;;5021452;28;20467;-62
2024/03/10 10:35:45;;;;;;;1.87;1.73;;;18.10;39.20;;;;;;5030234;28;20196;-63
2024/03/10 10:38:12;;;;;;;1.97;1.87;;;18.30;39.10;;;;;;5031637;28;20467;-61
2024/03/10 10:40:45;;;;;;;1.47;1.30;;;18.40;39.00;;;;;;5028954;28;20480;-62
2024/03/10 10:43:16;;;;;;;1.60;1.50;;;18.50;38.70;;;;;;5032997;28;20431;-63
2024/03/10 10:45:46;;;;;;;3.30;2.20;;;18.40;38.70;;;;;;5033660;28;20482;-63
2024/03/10 10:48:12;;;;;;;1.83;1.73;;;18.50;38.40;;;;;;5028349;28;20510;-66
2024/03/10 10:50:42;;;;;;;2.10;1.90;;;18.40;38.70;;;;;;5034121;28;20839;-61
2024/03/10 10:53:11;;;;;;;1.97;1.77;;;18.10;39.20;;;;;;5031867;28;21018;-63
2024/03/10 10:55:40;;;;;;;1.90;1.80;;;18.40;39.50;;;;;;5031932;28;20491;-63
2024/03/10 10:58:21;;;;;;;2.80;1.50;;;18.60;39.00;;;;;;5029854;28;20466;-67
2024/03/10 11:00:49;;;;;;;2.50;2.10;;;18.70;39.30;;;;;;5030823;28;20470;-62
2024/03/10 11:03:17;;;;;;;2.00;1.73;;;18.90;38.50;;;;;;5031791;28;20455;-62
2024/03/10 11:06:08;;;;;;;1.87;1.67;;;18.80;38.00;;;;;;5030112;28;20451;-60
2024/03/10 11:08:35;;;;;;;1.77;1.67;;;18.60;38.60;;;;;;5028918;28;20432;-61
2024/03/10 11:11:02;;;;;;;1.33;1.23;;;18.60;38.60;;;;;;5034028;28;20673;-63
2024/03/10 11:13:28;;;;;;;5.50;1.77;;;18.60;37.80;;;;;;5032017;28;20500;-60
2024/03/10 11:16:11;;;;;;;3.00;1.80;;;18.60;38.50;;;;;;5028360;28;20455;-62
2024/03/10 11:18:41;;;;;;;2.00;1.47;;;18.80;38.40;;;;;;5031735;28;20635;-63
2024/03/10 11:21:12;;;;;;;1.67;1.50;;;18.90;38.10;;;;;;5030907;28;20545;-66
2024/03/10 11:23:48;;;;;;;3.00;2.00;;;18.60;38.30;;;;;;5031783;28;20443;-59
2024/03/10 11:26:17;;;;;;;1.97;1.77;;;18.50;38.80;;;;;;5030633;28;20463;-58
2024/03/10 11:28:49;;;;;;;2.37;1.80;;;18.50;39.00;;;;;;5032373;28;20488;-63
2024/03/10 11:31:37;;;;;;;3.00;1.90;;;18.60;39.30;;;;;;5031559;28;20467;-64
2024/03/10 11:34:04;;;;;;;1.50;1.40;;;18.80;38.90;;;;;;5025951;28;20822;-65
2024/03/10 11:36:37;;;;;;;1.80;1.70;;;18.80;38.90;;;;;;5019956;28;20510;-60
2024/03/10 11:39:04;;;;;;;2.37;2.17;;;18.80;39.00;;;;;;5024102;28;21125;-67
2024/03/10 11:41:30;;;;;;;2.03;1.87;;;18.80;38.60;;;;;;5025471;28;20440;-70
2024/03/10 11:43:57;;;;;;;2.27;1.80;;;18.60;38.60;;;;;;5027557;28;20828;-61
2024/03/10 11:46:29;;;;;;;3.03;1.90;;;18.70;39.10;;;;;;5029020;28;20481;-68
2024/03/10 11:48:55;;;;;;;3.70;1.70;;;18.90;40.00;;;;;;5027103;28;20911;-59
2024/03/10 11:51:27;;;;;;;2.40;1.97;;;19.00;40.70;;;;;;5029978;28;20436;-66
2024/03/10 11:53:56;;;;;;;6.20;1.90;;;19.00;39.40;;;;;;5030378;28;20930;-68
2024/03/10 11:56:22;;;;;;;1.93;1.83;;;19.00;39.80;;;;;;5027849;28;20476;-63
2024/03/10 11:58:49;;;;;;;2.73;2.00;;;19.20;39.70;;;;;;5022965;28;20455;-65
2024/03/10 12:01:16;;;;;;;2.33;1.90;;;18.80;39.60;;;;;;5031100;28;20532;-68
2024/03/10 12:03:43;;;;;;;2.50;2.30;;;18.90;39.80;;;;;;5027030;28;20785;-64
2024/03/10 12:06:09;;;;;;;2.70;1.83;;;18.70;39.90;;;;;;5028375;28;20464;-63
2024/03/10 12:08:38;;;;;;;2.97;1.90;;;18.80;40.30;;;;;;5030504;28;20455;-68
2024/03/10 12:11:05;;;;;;;1.63;1.53;;;18.90;39.80;;;;;;5027674;28;20458;-63
2024/03/10 12:13:32;;;;;;;2.47;2.20;;;19.00;40.30;;;;;;5030196;28;20470;-61
2024/03/10 12:15:59;;;;;;;3.20;1.50;;;19.20;39.70;;;;;;5025380;28;20424;-64
2024/03/10 12:18:25;;;;;;;1.33;1.23;;;19.00;39.70;;;;;;5028617;28;20420;-62
2024/03/10 12:20:51;;;;;;;2.13;1.97;;;19.10;39.80;;;;;;5026437;28;20424;-62
2024/03/10 12:23:17;;;;;;;2.80;1.97;;;19.20;39.40;;;;;;5028468;28;20500;-62
2024/03/10 12:25:44;;;;;;;5.30;1.80;;;19.20;39.00;;;;;;5023182;28;20423;-62
2024/03/10 12:28:13;;;;;;;2.40;1.70;;;19.40;39.10;;;;;;5030889;28;20534;-63
2024/03/10 12:30:41;;;;;;;2.00;1.80;;;19.70;38.50;;;;;;5029710;28;20867;-61
2024/03/10 12:33:09;;;;;;;1.80;1.70;;;19.90;38.60;;;;;;5031905;28;20423;-61
2024/03/10 12:35:36;;;;;;;2.63;1.70;;;19.90;39.20;;;;;;5027439;28;20476;-61
2024/03/10 12:38:03;;;;;;;2.63;2.00;;;20.00;39.40;;;;;;5021387;28;20474;-69
2024/03/10 12:40:32;;;;;;;2.60;2.10;;;20.20;38.90;;;;;;5031955;28;20451;-62
2024/03/10 12:42:59;;;;;;;2.40;1.67;;;20.30;38.20;;;;;;5030448;28;20462;-64
2024/03/10 12:45:24;;;;;;;2.30;2.10;;;20.30;38.50;;;;;;5028019;28;20423;-64
2024/03/10 12:47:51;;;;;;;2.40;2.07;;;20.30;37.90;;;;;;5029784;28;20435;-65
2024/03/10 12:50:17;;;;;;;1.90;1.80;;;20.20;38.00;;;;;;5028083;28;20285;-62
2024/03/10 12:52:43;;;;;;;3.07;2.13;;;20.10;37.90;;;;;;5028312;28;20436;-63
2024/03/10 12:55:09;;;;;;;2.97;1.90;;;20.10;38.60;;;;;;5025767;28;20852;-60
2024/03/10 12:57:36;;;;;;;1.90;1.80;;;20.10;38.20;;;;;;5028774;28;20224;-62
2024/03/10 13:03:05;;;;;;;3.27;2.27;;;20.40;37.80;;;;;;5015222;28;20460;-63
2024/03/10 13:05:31;;;;;;;2.70;2.50;;;20.40;37.70;;;;;;5023099;28;20847;-62
2024/03/10 13:07:58;;;;;;;2.37;2.17;;;20.40;37.60;;;;;;5026518;28;20525;-65
2024/03/10 13:10:25;;;;;;;1.93;1.83;;;20.40;37.40;;;;;;5025483;28;20190;-61
2024/03/10 13:12:51;;;;;;;3.50;2.17;;;20.40;37.30;;;;;;5025039;28;20440;-62
2024/03/10 13:15:16;;;;;;;2.47;2.27;;;20.30;37.50;;;;;;5025647;28;21022;-72